createdAt,value
2018-09-21T00:00:43.090Z,20.99
2018-09-21T00:03:11.489Z,21.01
2018-09-21T00:05:38.988Z,21.07
2018-09-21T00:08:06.670Z,21.14
2018-09-21T00:10:34.212Z,21.19
2018-09-21T00:13:01.909Z,21.04
2018-09-21T00:15:29.559Z,21.08
2018-09-21T00:17:57.334Z,21.05
2018-09-21T00:20:24.795Z,20.99
2018-09-21T00:22:52.540Z,21.04
2018-09-21T00:25:20.014Z,21.13
2018-09-21T00:27:47.932Z,21.14
2018-09-21T00:30:15.973Z,21.10
2018-09-21T00:32:43.719Z,21.09
2018-09-21T00:35:11.914Z,21.12
2018-09-21T00:37:40.437Z,21.10
2018-09-21T00:40:08.010Z,21.18
2018-09-21T00:42:35.840Z,21.21
2018-09-21T00:45:03.648Z,21.19
2018-09-21T00:47:31.313Z,21.22
2018-09-21T00:49:59.065Z,21.06
2018-09-21T00:52:26.669Z,21.06
2018-09-21T00:54:54.548Z,21.10
2018-09-21T00:57:21.990Z,21.09
2018-09-21T00:59:50.089Z,21.07
2018-09-21T01:02:17.612Z,21.05
2018-09-21T01:04:45.108Z,21.06
2018-09-21T01:07:14.501Z,20.96
2018-09-21T01:09:42.267Z,21.12
2018-09-21T01:12:09.935Z,21.07
2018-09-21T01:14:37.457Z,21.08
2018-09-21T01:17:05.721Z,21.07
2018-09-21T01:19:33.749Z,20.96
2018-09-21T01:22:01.972Z,20.93
2018-09-21T01:24:29.561Z,20.92
2018-09-21T01:26:57.024Z,20.83
2018-09-21T01:29:24.683Z,20.84
2018-09-21T01:31:52.345Z,20.81
2018-09-21T01:34:19.914Z,20.74
2018-09-21T01:36:47.546Z,20.76
2018-09-21T01:39:15.065Z,20.75
2018-09-21T01:41:43.575Z,20.78
2018-09-21T01:44:12.014Z,20.84
2018-09-21T01:46:39.760Z,20.76
2018-09-21T01:49:07.829Z,20.75
2018-09-21T01:51:35.696Z,20.91
2018-09-21T01:54:03.084Z,20.92
2018-09-21T01:56:30.787Z,20.76
2018-09-21T01:58:58.378Z,20.79
2018-09-21T02:01:25.968Z,20.75
2018-09-21T02:03:53.651Z,20.67
2018-09-21T02:06:21.257Z,20.64
2018-09-21T02:08:48.907Z,20.63
2018-09-21T02:11:16.760Z,20.72
2018-09-21T02:13:44.465Z,20.72
2018-09-21T02:16:12.779Z,20.67
2018-09-21T02:18:40.304Z,20.61
2018-09-21T02:21:07.873Z,20.64
2018-09-21T02:23:35.730Z,20.71
2018-09-21T02:26:03.199Z,20.62
2018-09-21T02:28:30.923Z,20.63
2018-09-21T02:30:58.574Z,20.66
2018-09-21T02:33:25.984Z,20.74
2018-09-21T02:35:54.237Z,20.62
2018-09-21T02:38:21.921Z,20.53
2018-09-21T02:40:49.616Z,20.54
2018-09-21T02:43:17.134Z,20.64
2018-09-21T02:45:45.095Z,20.54
2018-09-21T02:48:13.362Z,20.63
2018-09-21T02:50:40.797Z,20.61
2018-09-21T02:53:08.388Z,20.70
2018-09-21T02:55:36.131Z,20.63
2018-09-21T02:58:03.640Z,20.64
2018-09-21T03:00:31.316Z,20.54
2018-09-21T03:02:58.949Z,20.51
2018-09-21T03:05:26.621Z,20.38
2018-09-21T03:07:54.131Z,20.44
2018-09-21T03:10:21.778Z,20.39
2018-09-21T03:12:49.645Z,20.44
2018-09-21T03:15:17.840Z,20.33
2018-09-21T03:17:46.505Z,20.42
2018-09-21T03:20:14.224Z,20.38
2018-09-21T03:22:41.911Z,20.32
2018-09-21T03:25:09.276Z,20.37
2018-09-21T03:27:36.776Z,20.28
2018-09-21T03:30:04.368Z,20.33
2018-09-21T03:32:32.196Z,20.36
2018-09-21T03:34:59.872Z,20.31
2018-09-21T03:37:27.551Z,20.39
2018-09-21T03:39:55.138Z,20.39
2018-09-21T03:42:23.388Z,20.38
2018-09-21T03:44:50.948Z,20.26
2018-09-21T03:47:18.648Z,20.29
2018-09-21T03:49:47.228Z,20.35
2018-09-21T03:52:14.766Z,20.38
2018-09-21T03:54:42.525Z,20.36
2018-09-21T03:57:10.248Z,20.27
2018-09-21T03:59:37.803Z,20.22
2018-09-21T04:02:05.290Z,20.16
2018-09-21T04:04:32.774Z,20.28
2018-09-21T04:07:00.986Z,20.20
2018-09-21T04:09:28.515Z,20.24
2018-09-21T04:11:56.099Z,20.26
2018-09-21T04:14:23.625Z,20.25
2018-09-21T04:16:51.258Z,20.19
2018-09-21T04:19:18.761Z,20.27
2018-09-21T04:21:46.864Z,20.23
2018-09-21T04:24:14.562Z,20.26
2018-09-21T04:26:42.186Z,20.28
2018-09-21T04:29:09.906Z,20.34
2018-09-21T04:31:37.493Z,20.22
2018-09-21T04:34:05.116Z,20.29
2018-09-21T04:36:32.746Z,20.30
2018-09-21T04:39:00.628Z,20.32
2018-09-21T04:41:28.138Z,20.41
2018-09-21T04:43:55.910Z,20.18
2018-09-21T04:46:24.093Z,19.39
2018-09-21T04:48:51.713Z,18.72
2018-09-21T04:51:19.183Z,18.33
2018-09-21T04:53:47.517Z,18.04
2018-09-21T04:56:14.989Z,17.87
2018-09-21T04:58:43.304Z,17.95
2018-09-21T05:01:10.929Z,17.96
2018-09-21T05:03:38.356Z,17.87
2018-09-21T05:06:06.610Z,17.88
2018-09-21T05:08:34.813Z,17.88
2018-09-21T05:11:02.697Z,18.00
2018-09-21T05:13:30.317Z,17.96
2018-09-21T05:15:57.757Z,18.01
2018-09-21T05:18:25.402Z,17.83
2018-09-21T05:20:53.092Z,17.78
2018-09-21T05:23:20.637Z,17.80
2018-09-21T05:25:48.263Z,17.81
2018-09-21T05:28:15.786Z,17.93
2018-09-21T05:30:43.506Z,17.87
2018-09-21T05:33:11.082Z,17.88
2018-09-21T05:35:38.769Z,17.89
2018-09-21T05:38:06.151Z,17.98
2018-09-21T05:40:34.080Z,18.04
2018-09-21T05:43:01.578Z,18.04
2018-09-21T05:45:29.313Z,17.84
2018-09-21T05:47:56.934Z,17.77
2018-09-21T05:50:24.847Z,17.71
2018-09-21T05:52:52.285Z,17.62
2018-09-21T05:55:19.853Z,17.38
2018-09-21T05:57:47.233Z,17.28
2018-09-21T06:00:16.583Z,17.22
2018-09-21T06:02:44.795Z,17.03
2018-09-21T06:05:12.302Z,17.11
2018-09-21T06:07:40.162Z,17.03
2018-09-21T06:10:07.730Z,17.07
2018-09-21T06:12:35.733Z,16.98
2018-09-21T06:15:03.231Z,17.02
2018-09-21T06:17:30.943Z,17.07
2018-09-21T06:20:11.756Z,17.04
2018-09-21T06:22:26.328Z,17.11
2018-09-21T06:24:53.759Z,17.15
2018-09-21T06:27:21.315Z,17.24
2018-09-21T06:29:48.861Z,17.19
2018-09-21T06:32:16.349Z,17.11
2018-09-21T06:34:44.242Z,16.98
2018-09-21T06:37:11.693Z,16.94
2018-09-21T06:39:39.089Z,16.76
2018-09-21T06:42:06.680Z,16.59
2018-09-21T06:44:34.441Z,16.42
2018-09-21T06:47:02.281Z,16.34
2018-09-21T06:49:30.251Z,16.27
2018-09-21T06:51:57.833Z,16.16
2018-09-21T06:54:25.557Z,16.29
2018-09-21T06:56:53.539Z,16.13
2018-09-21T06:59:22.350Z,16.20
2018-09-21T07:01:50.811Z,16.44
2018-09-21T07:04:18.330Z,16.23
2018-09-21T07:06:45.873Z,16.14
2018-09-21T07:09:13.979Z,16.12
2018-09-21T07:11:42.365Z,16.32
2018-09-21T07:14:10.963Z,16.41
2018-09-21T07:16:38.443Z,16.51
2018-09-21T07:19:06.080Z,16.34
2018-09-21T07:21:33.570Z,16.46
2018-09-21T07:24:01.026Z,16.42
2018-09-21T07:26:28.475Z,16.45
2018-09-21T07:28:55.916Z,16.49
2018-09-21T07:31:23.563Z,16.73
2018-09-21T07:33:51.121Z,16.83
2018-09-21T07:36:18.701Z,16.96
2018-09-21T07:38:46.129Z,17.06
2018-09-21T07:41:13.862Z,17.17
2018-09-21T07:43:41.305Z,17.00
2018-09-21T07:46:08.838Z,17.05
2018-09-21T07:48:36.288Z,16.84
2018-09-21T07:51:03.724Z,16.88
2018-09-21T07:53:31.275Z,16.27
2018-09-21T07:55:58.804Z,15.87
2018-09-21T07:58:26.455Z,15.83
2018-09-21T08:00:53.941Z,16.09
2018-09-21T08:03:21.456Z,16.09
2018-09-21T08:05:48.994Z,16.24
2018-09-21T08:08:16.562Z,16.20
2018-09-21T08:10:43.947Z,16.46
2018-09-21T08:13:11.347Z,16.37
2018-09-21T08:15:38.818Z,16.42
2018-09-21T08:18:06.319Z,16.49
2018-09-21T08:20:33.905Z,16.45
2018-09-21T08:23:01.561Z,16.30
2018-09-21T08:25:29.079Z,16.48
2018-09-21T08:27:56.537Z,16.55
2018-09-21T08:30:24.153Z,16.43
2018-09-21T08:32:51.946Z,16.29
2018-09-21T08:35:19.835Z,16.20
2018-09-21T08:37:47.437Z,16.10
2018-09-21T08:40:15.372Z,16.07
2018-09-21T08:42:51.144Z,15.86
2018-09-21T08:45:18.949Z,16.00
2018-09-21T08:47:46.536Z,16.19
2018-09-21T08:50:14.148Z,15.95
2018-09-21T08:52:41.774Z,16.03
2018-09-21T08:55:09.684Z,15.88
2018-09-21T08:57:37.310Z,15.73
2018-09-21T09:00:04.921Z,15.67
2018-09-21T09:02:32.806Z,15.69
2018-09-21T09:05:03.829Z,15.54
2018-09-21T09:07:32.340Z,15.38
2018-09-21T09:10:00.108Z,15.66
2018-09-21T09:12:27.759Z,15.62
2018-09-21T09:14:55.439Z,15.74
2018-09-21T09:17:22.995Z,15.88
2018-09-21T09:19:50.669Z,15.70
2018-09-21T09:22:21.785Z,15.43
2018-09-21T09:24:50.492Z,15.25
2018-09-21T09:27:18.961Z,15.60
2018-09-21T09:29:47.323Z,15.48
2018-09-21T09:32:18.070Z,15.27
2018-09-21T09:34:47.826Z,15.23
2018-09-21T09:37:15.891Z,15.41
2018-09-21T09:39:46.578Z,15.71
2018-09-21T09:42:14.203Z,15.93
2018-09-21T09:44:41.589Z,16.05
2018-09-21T09:47:09.667Z,15.89
2018-09-21T09:49:37.829Z,15.62
2018-09-21T09:52:06.235Z,15.76
2018-09-21T09:54:34.517Z,15.58
2018-09-21T09:57:07.740Z,15.73
2018-09-21T09:59:36.105Z,16.23
2018-09-21T10:02:03.798Z,16.20
2018-09-21T10:04:31.517Z,16.16
2018-09-21T10:06:59.117Z,15.72
2018-09-21T10:09:26.682Z,15.53
2018-09-21T10:11:54.865Z,15.49
2018-09-21T10:14:22.563Z,15.28
2018-09-21T10:16:50.623Z,15.36
2018-09-21T10:19:19.089Z,15.48
2018-09-21T10:21:46.943Z,15.55
2018-09-21T10:24:15.110Z,15.60
2018-09-21T10:26:43.036Z,15.65
2018-09-21T10:29:11.511Z,15.65
2018-09-21T10:31:40.439Z,15.58
2018-09-21T10:34:09.503Z,15.64
2018-09-21T10:36:36.997Z,15.96
2018-09-21T10:39:06.269Z,15.77
2018-09-21T10:41:33.978Z,15.85
2018-09-21T10:44:01.418Z,15.90
2018-09-21T10:46:29.526Z,16.14
2018-09-21T10:48:57.018Z,16.16
2018-09-21T10:51:24.637Z,16.46
2018-09-21T10:53:52.261Z,16.10
2018-09-21T10:56:20.031Z,15.78
2018-09-21T10:58:48.502Z,15.64
2018-09-21T11:01:16.377Z,15.63
2018-09-21T11:03:44.101Z,15.76
2018-09-21T11:06:12.093Z,15.77
2018-09-21T11:08:47.676Z,15.69
2018-09-21T11:11:15.652Z,15.98
2018-09-21T11:13:43.060Z,15.95
2018-09-21T11:16:10.734Z,15.72
2018-09-21T11:18:38.412Z,16.08
2018-09-21T11:21:05.944Z,16.03
2018-09-21T11:23:33.412Z,16.24
2018-09-21T11:26:00.896Z,16.45
2018-09-21T11:28:28.309Z,16.25
2018-09-21T11:30:56.494Z,15.61
2018-09-21T11:33:24.060Z,15.78
2018-09-21T11:35:51.562Z,15.86
2018-09-21T11:38:19.018Z,15.93
2018-09-21T11:40:46.718Z,16.01
2018-09-21T11:43:14.251Z,16.05
2018-09-21T11:45:41.942Z,16.06
2018-09-21T11:48:09.421Z,16.32
2018-09-21T11:50:36.874Z,16.30
2018-09-21T11:53:04.470Z,16.55
2018-09-21T11:55:31.921Z,16.36
2018-09-21T11:57:59.618Z,16.36
2018-09-21T12:00:27.347Z,16.38
2018-09-21T12:02:56.248Z,16.15
2018-09-21T12:05:23.903Z,16.57
2018-09-21T12:07:52.053Z,16.71
2018-09-21T12:10:19.771Z,17.12
2018-09-21T12:12:47.343Z,17.29
2018-09-21T12:15:15.235Z,17.39
2018-09-21T12:17:43.013Z,16.97
2018-09-21T12:20:10.490Z,17.10
2018-09-21T12:22:38.102Z,16.65
2018-09-21T12:25:05.605Z,16.68
2018-09-21T12:27:33.377Z,17.82
2018-09-21T12:30:00.931Z,17.99
2018-09-21T12:32:28.495Z,17.95
2018-09-21T12:34:55.938Z,16.73
2018-09-21T12:37:23.488Z,17.65
2018-09-21T12:39:50.976Z,17.84
2018-09-21T12:42:18.559Z,17.96
2018-09-21T12:44:46.245Z,17.77
2018-09-21T12:47:13.664Z,18.41
2018-09-21T12:49:41.172Z,19.14
2018-09-21T12:52:08.988Z,17.90
2018-09-21T12:54:37.219Z,18.42
2018-09-21T12:57:04.678Z,18.40
2018-09-21T12:59:32.202Z,17.53
2018-09-21T13:01:59.668Z,17.91
2018-09-21T13:04:27.093Z,19.41
2018-09-21T13:06:54.524Z,19.08
2018-09-21T13:09:21.933Z,17.66
2018-09-21T13:11:49.539Z,17.23
2018-09-21T13:14:16.991Z,17.23
2018-09-21T13:16:44.473Z,17.45
2018-09-21T13:19:12.109Z,17.97
2018-09-21T13:21:39.825Z,19.26
2018-09-21T13:24:07.348Z,18.58
2018-09-21T13:26:35.473Z,18.13
2018-09-21T13:29:03.507Z,17.77
2018-09-21T13:31:30.947Z,19.12
2018-09-21T13:33:58.475Z,19.30
2018-09-21T13:36:25.962Z,19.20
2018-09-21T13:38:53.515Z,18.92
2018-09-21T13:41:21.065Z,17.49
2018-09-21T13:43:48.638Z,18.05
2018-09-21T13:46:16.100Z,18.44
2018-09-21T13:48:43.576Z,18.10
2018-09-21T13:51:11.145Z,18.31
2018-09-21T13:53:38.671Z,17.70
2018-09-21T13:56:06.099Z,17.90
2018-09-21T13:58:33.559Z,17.32
2018-09-21T14:01:01.843Z,17.73
2018-09-21T14:03:29.332Z,16.92
2018-09-21T14:06:01.880Z,17.45
2018-09-21T14:08:29.601Z,17.30
2018-09-21T14:10:57.124Z,17.78
2018-09-21T14:13:24.698Z,17.18
2018-09-21T14:15:52.358Z,17.94
2018-09-21T14:18:19.805Z,18.04
2018-09-21T14:20:47.485Z,18.07
2018-09-21T14:23:14.926Z,18.51
2018-09-21T14:25:42.513Z,18.39
2018-09-21T14:28:10.028Z,17.06
2018-09-21T14:30:38.127Z,17.18
2018-09-21T14:33:05.850Z,17.02
2018-09-21T14:35:34.056Z,17.01
2018-09-21T14:38:01.730Z,17.23
2018-09-21T14:40:29.214Z,17.41
2018-09-21T14:42:56.678Z,17.00
2018-09-21T14:45:24.133Z,16.71
2018-09-21T14:47:51.695Z,16.67
2018-09-21T14:50:19.662Z,17.12
2018-09-21T14:52:47.158Z,16.97
2018-09-21T14:55:14.679Z,17.07
2018-09-21T14:57:42.123Z,17.54
2018-09-21T15:00:10.195Z,17.61
2018-09-21T15:02:37.621Z,18.23
2018-09-21T15:05:05.136Z,17.87
2018-09-21T15:07:32.641Z,17.24
2018-09-21T15:10:00.890Z,17.12
2018-09-21T15:12:28.513Z,16.87
2018-09-21T15:14:55.998Z,16.88
2018-09-21T15:17:23.490Z,17.42
2018-09-21T15:19:50.954Z,17.72
2018-09-21T15:22:18.616Z,17.72
2018-09-21T15:24:46.089Z,18.01
2018-09-21T15:27:13.810Z,17.46
2018-09-21T15:29:41.306Z,17.26
2018-09-21T15:32:08.737Z,16.97
2018-09-21T15:34:36.193Z,16.71
2018-09-21T15:37:03.869Z,16.73
2018-09-21T15:39:31.404Z,16.72
2018-09-21T15:41:59.754Z,16.64
2018-09-21T15:44:26.947Z,16.41
2018-09-21T15:46:54.472Z,16.51
2018-09-21T15:49:21.912Z,16.45
2018-09-21T15:51:49.396Z,16.43
2018-09-21T15:54:16.827Z,16.35
2018-09-21T15:56:44.315Z,16.29
2018-09-21T15:59:11.933Z,13.55
2018-09-21T16:01:39.534Z,13.31
2018-09-21T16:04:07.352Z,13.45
2018-09-21T16:06:35.212Z,13.06
2018-09-21T16:09:05.286Z,12.94
2018-09-21T16:11:33.157Z,13.15
2018-09-21T16:14:01.169Z,13.40
2018-09-21T16:16:28.707Z,13.36
2018-09-21T16:18:56.612Z,13.41
2018-09-21T16:21:26.166Z,13.41
2018-09-21T16:23:54.063Z,13.66
2018-09-21T16:26:21.641Z,13.78
2018-09-21T16:28:49.245Z,14.21
2018-09-21T16:31:17.079Z,14.46
2018-09-21T16:33:45.898Z,14.38
2018-09-21T16:36:13.433Z,14.76
2018-09-21T16:38:41.279Z,14.63
2018-09-21T16:41:08.869Z,14.95
2018-09-21T16:43:36.410Z,14.92
2018-09-21T16:46:03.954Z,14.99
2018-09-21T16:48:32.619Z,15.28
2018-09-21T16:51:00.621Z,15.31
2018-09-21T16:53:28.143Z,15.25
2018-09-21T16:55:55.739Z,15.39
2018-09-21T16:58:23.548Z,15.55
2018-09-21T17:00:51.484Z,15.65
2018-09-21T17:03:19.540Z,15.54
2018-09-21T17:05:47.494Z,15.50
2018-09-21T17:08:15.528Z,15.47
2018-09-21T17:10:43.401Z,15.50
2018-09-21T17:13:11.375Z,15.57
2018-09-21T17:15:39.104Z,15.53
2018-09-21T17:18:07.097Z,15.68
2018-09-21T17:20:34.646Z,15.72
2018-09-21T17:23:02.164Z,15.74
2018-09-21T17:25:29.735Z,15.78
2018-09-21T17:27:57.394Z,15.78
2018-09-21T17:30:24.948Z,15.79
2018-09-21T17:32:52.596Z,15.77
2018-09-21T17:35:20.154Z,15.76
2018-09-21T17:37:47.840Z,15.73
2018-09-21T17:40:16.094Z,15.68
2018-09-21T17:42:43.695Z,15.68
2018-09-21T17:45:12.034Z,15.74
2018-09-21T17:47:39.806Z,15.85
2018-09-21T17:50:07.697Z,15.83
2018-09-21T17:52:35.597Z,15.90
2018-09-21T17:55:03.399Z,15.89
2018-09-21T17:57:31.243Z,16.05
2018-09-21T17:59:58.919Z,15.10
2018-09-21T18:02:26.738Z,13.28
2018-09-21T18:04:54.652Z,12.81
2018-09-21T18:07:22.528Z,12.57
2018-09-21T18:09:52.599Z,12.58
2018-09-21T18:12:20.562Z,12.55
2018-09-21T18:14:48.539Z,12.66
2018-09-21T18:17:16.446Z,12.63
2018-09-21T18:19:44.077Z,12.57
2018-09-21T18:22:12.177Z,12.85
2018-09-21T18:24:40.549Z,12.98
2018-09-21T18:27:08.826Z,13.08
2018-09-21T18:29:36.387Z,12.98
2018-09-21T18:32:04.012Z,13.14
2018-09-21T18:34:31.501Z,13.31
2018-09-21T18:36:59.512Z,13.19
2018-09-21T18:39:27.260Z,13.18
2018-09-21T18:41:54.925Z,13.29
2018-09-21T18:44:22.961Z,13.31
2018-09-21T18:46:50.505Z,13.45
2018-09-21T18:49:18.051Z,13.40
2018-09-21T18:51:46.491Z,13.48
2018-09-21T18:54:14.463Z,13.61
2018-09-21T18:56:43.254Z,13.67
2018-09-21T18:59:11.280Z,13.89
2018-09-21T19:01:39.166Z,14.03
2018-09-21T19:04:06.844Z,14.28
2018-09-21T19:06:34.572Z,14.48
2018-09-21T19:09:03.476Z,14.57
2018-09-21T19:11:30.983Z,14.43
2018-09-21T19:13:59.405Z,14.20
2018-09-21T19:16:27.288Z,14.18
2018-09-21T19:18:55.294Z,14.16
2018-09-21T19:21:24.236Z,14.38
2018-09-21T19:23:52.449Z,14.40
2018-09-21T19:26:20.510Z,14.68
2018-09-21T19:28:48.584Z,14.56
2018-09-21T19:31:16.756Z,14.51
2018-09-21T19:33:44.668Z,14.43
2018-09-21T19:36:12.399Z,13.48
2018-09-21T19:38:40.664Z,12.75
2018-09-21T19:41:08.361Z,12.86
2018-09-21T19:43:35.942Z,12.84
2018-09-21T19:46:03.588Z,12.94
2018-09-21T19:48:31.261Z,13.11
2018-09-21T19:50:58.779Z,13.34
2018-09-21T19:53:26.741Z,13.48
2018-09-21T19:55:54.373Z,13.85
2018-09-21T19:58:22.467Z,14.11
2018-09-21T20:00:50.116Z,14.14
2018-09-21T20:03:17.666Z,14.06
2018-09-21T20:05:45.271Z,14.17
2018-09-21T20:08:13.103Z,14.14
2018-09-21T20:10:40.778Z,14.12
2018-09-21T20:13:09.223Z,14.15
2018-09-21T20:15:37.450Z,14.45
2018-09-21T20:18:05.677Z,14.50
2018-09-21T20:20:33.548Z,14.43
2018-09-21T20:23:01.031Z,14.64
2018-09-21T20:25:28.705Z,14.24
2018-09-21T20:27:56.597Z,14.06
2018-09-21T20:30:30.065Z,13.98
2018-09-21T20:33:03.459Z,13.97
2018-09-21T20:35:31.372Z,14.08
2018-09-21T20:37:59.089Z,14.06
2018-09-21T20:40:27.235Z,13.97
2018-09-21T20:42:55.067Z,14.00
2018-09-21T20:45:22.840Z,14.06
2018-09-21T20:47:50.498Z,14.24
2018-09-21T20:50:18.585Z,14.33
2018-09-21T20:52:46.192Z,14.17
2018-09-21T20:55:13.754Z,13.89
2018-09-21T20:57:41.393Z,13.65
2018-09-21T21:00:09.042Z,13.52
2018-09-21T21:02:36.696Z,13.42
2018-09-21T21:05:04.401Z,13.58
2018-09-21T21:07:31.947Z,13.61
2018-09-21T21:10:01.006Z,13.65
2018-09-21T21:12:29.085Z,13.82
2018-09-21T21:14:56.818Z,13.89
2018-09-21T21:17:24.484Z,14.19
2018-09-21T21:19:51.989Z,14.30
2018-09-21T21:22:20.216Z,14.48
2018-09-21T21:24:47.732Z,14.53
2018-09-21T21:27:16.538Z,14.63
2018-09-21T21:29:44.086Z,14.70
2018-09-21T21:32:11.697Z,14.58
2018-09-21T21:34:39.599Z,14.65
2018-09-21T21:37:07.154Z,14.53
2018-09-21T21:39:34.815Z,14.65
2018-09-21T21:42:02.631Z,14.58
2018-09-21T21:44:30.216Z,14.73
2018-09-21T21:46:57.985Z,14.80
2018-09-21T21:49:26.451Z,14.69
2018-09-21T21:51:54.453Z,14.81
2018-09-21T21:54:22.218Z,14.70
2018-09-21T21:56:50.011Z,14.68
2018-09-21T21:59:17.581Z,14.69
2018-09-21T22:01:46.765Z,14.83
2018-09-21T22:04:15.536Z,14.86
2018-09-21T22:06:44.032Z,14.89
2018-09-21T22:09:12.570Z,14.83
2018-09-21T22:11:45.787Z,14.85
2018-09-21T22:14:14.075Z,14.69
2018-09-21T22:16:42.237Z,14.69
2018-09-21T22:19:10.475Z,14.76
2018-09-21T22:21:38.086Z,14.82
2018-09-21T22:24:06.057Z,14.74
2018-09-21T22:26:33.809Z,14.92
2018-09-21T22:29:01.944Z,14.82
2018-09-21T22:31:29.985Z,14.87
2018-09-21T22:33:58.164Z,14.78
2018-09-21T22:36:25.700Z,14.73
2018-09-21T22:38:54.070Z,14.89
2018-09-21T22:41:22.149Z,14.77
2018-09-21T22:43:50.088Z,14.75
2018-09-21T22:46:17.744Z,14.79
2018-09-21T22:48:45.889Z,14.64
2018-09-21T22:51:14.042Z,14.72
2018-09-21T22:53:41.824Z,14.65
2018-09-21T22:56:09.347Z,14.63
2018-09-21T22:58:37.982Z,14.62
2018-09-21T23:01:06.174Z,14.60
2018-09-21T23:03:33.749Z,14.64
2018-09-21T23:06:01.329Z,14.60
2018-09-21T23:08:29.312Z,14.68
2018-09-21T23:10:56.934Z,14.67
2018-09-21T23:13:24.698Z,14.70
2018-09-21T23:15:52.693Z,14.87
2018-09-21T23:18:20.410Z,14.79
2018-09-21T23:20:48.019Z,14.81
2018-09-21T23:23:15.687Z,14.81
2018-09-21T23:25:44.603Z,14.84
2018-09-21T23:28:12.796Z,14.76
2018-09-21T23:30:41.129Z,14.86
2018-09-21T23:33:09.200Z,14.92
2018-09-21T23:35:36.694Z,14.90
2018-09-21T23:38:04.704Z,15.03
2018-09-21T23:40:32.402Z,15.00
2018-09-21T23:43:00.162Z,15.05
2018-09-21T23:45:28.323Z,15.11
2018-09-21T23:47:56.470Z,15.00
2018-09-21T23:50:24.522Z,14.85
2018-09-21T23:52:52.481Z,14.90
2018-09-21T23:55:20.337Z,14.83
2018-09-21T23:57:48.090Z,14.80
